sensor_id;sensor_type;location;lat;lon;timestamp;P1;durP1;ratioP1;P2;durP2;ratioP2
4833;SDS011;12895;51.064;7.028;2023-06-22T00:01:18;5.67;;;5.17;;
4833;SDS011;12895;51.064;7.028;2023-06-22T00:04:06;5.43;;;5.03;;
4833;SDS011;12895;51.064;7.028;2023-06-22T00:06:53;5.47;;;5.07;;
4833;SDS011;12895;51.064;7.028;2023-06-22T00:09:41;7.43;;;5.60;;
4833;SDS011;12895;51.064;7.028;2023-06-22T00:12:28;5.97;;;5.10;;
4833;SDS011;12895;51.064;7.028;2023-06-22T00:15:15;6.30;;;5.80;;
4833;SDS011;12895;51.064;7.028;2023-06-22T00:18:03;5.00;;;4.60;;
4833;SDS011;12895;51.064;7.028;2023-06-22T00:20:50;6.90;;;6.30;;
4833;SDS011;12895;51.064;7.028;2023-06-22T00:23:41;5.60;;;5.10;;
4833;SDS011;12895;51.064;7.028;2023-06-22T00:26:30;5.00;;;4.70;;
4833;SDS011;12895;51.064;7.028;2023-06-22T00:29:17;6.10;;;5.50;;
4833;SDS011;12895;51.064;7.028;2023-06-22T00:32:04;5.17;;;4.77;;
4833;SDS011;12895;51.064;7.028;2023-06-22T00:34:52;4.90;;;4.50;;
4833;SDS011;12895;51.064;7.028;2023-06-22T00:37:39;5.70;;;5.20;;
4833;SDS011;12895;51.064;7.028;2023-06-22T00:40:27;5.30;;;4.90;;
4833;SDS011;12895;51.064;7.028;2023-06-22T00:43:16;4.93;;;4.60;;
4833;SDS011;12895;51.064;7.028;2023-06-22T00:46:03;5.87;;;5.37;;
4833;SDS011;12895;51.064;7.028;2023-06-22T00:48:50;8.80;;;5.27;;
4833;SDS011;12895;51.064;7.028;2023-06-22T00:51:42;5.30;;;4.90;;
4833;SDS011;12895;51.064;7.028;2023-06-22T00:54:31;4.63;;;4.33;;
4833;SDS011;12895;51.064;7.028;2023-06-22T00:57:19;4.73;;;4.33;;
4833;SDS011;12895;51.064;7.028;2023-06-22T01:00:08;4.70;;;4.40;;
4833;SDS011;12895;51.064;7.028;2023-06-22T01:03:02;5.00;;;4.60;;
4833;SDS011;12895;51.064;7.028;2023-06-22T01:05:54;5.00;;;4.50;;
4833;SDS011;12895;51.064;7.028;2023-06-22T01:08:49;5.20;;;4.80;;
4833;SDS011;12895;51.064;7.028;2023-06-22T01:11:41;5.30;;;3.73;;
4833;SDS011;12895;51.064;7.028;2023-06-22T01:14:32;4.23;;;3.93;;
4833;SDS011;12895;51.064;7.028;2023-06-22T01:17:25;4.60;;;4.20;;
4833;SDS011;12895;51.064;7.028;2023-06-22T01:20:13;4.17;;;3.87;;
4833;SDS011;12895;51.064;7.028;2023-06-22T01:23:05;4.60;;;4.30;;
4833;SDS011;12895;51.064;7.028;2023-06-22T01:26:14;4.73;;;4.37;;
4833;SDS011;12895;51.064;7.028;2023-06-22T01:29:08;4.10;;;3.90;;
4833;SDS011;12895;51.064;7.028;2023-06-22T01:31:57;4.20;;;3.93;;
4833;SDS011;12895;51.064;7.028;2023-06-22T01:34:48;4.47;;;4.13;;
4833;SDS011;12895;51.064;7.028;2023-06-22T01:37:36;3.83;;;3.60;;
4833;SDS011;12895;51.064;7.028;2023-06-22T01:40:24;4.50;;;4.20;;
4833;SDS011;12895;51.064;7.028;2023-06-22T01:43:12;4.50;;;4.10;;
4833;SDS011;12895;51.064;7.028;2023-06-22T01:46:01;4.93;;;4.10;;
4833;SDS011;12895;51.064;7.028;2023-06-22T01:48:49;4.70;;;4.20;;
4833;SDS011;12895;51.064;7.028;2023-06-22T01:51:37;4.83;;;4.53;;
4833;SDS011;12895;51.064;7.028;2023-06-22T01:54:24;4.97;;;4.57;;
4833;SDS011;12895;51.064;7.028;2023-06-22T01:57:11;4.67;;;4.30;;
4833;SDS011;12895;51.064;7.028;2023-06-22T01:59:59;5.30;;;3.90;;
4833;SDS011;12895;51.064;7.028;2023-06-22T02:02:50;4.43;;;4.13;;
4833;SDS011;12895;51.064;7.028;2023-06-22T02:05:42;4.57;;;4.27;;
4833;SDS011;12895;51.064;7.028;2023-06-22T02:08:41;4.40;;;4.10;;
4833;SDS011;12895;51.064;7.028;2023-06-22T02:11:36;3.93;;;3.63;;
4833;SDS011;12895;51.064;7.028;2023-06-22T02:14:24;4.53;;;4.23;;
4833;SDS011;12895;51.064;7.028;2023-06-22T02:17:11;4.50;;;4.20;;
4833;SDS011;12895;51.064;7.028;2023-06-22T02:20:02;4.60;;;4.20;;
4833;SDS011;12895;51.064;7.028;2023-06-22T02:22:55;4.60;;;4.20;;
4833;SDS011;12895;51.064;7.028;2023-06-22T02:25:42;4.47;;;4.10;;
4833;SDS011;12895;51.064;7.028;2023-06-22T02:28:30;4.40;;;4.10;;
4833;SDS011;12895;51.064;7.028;2023-06-22T02:31:17;4.77;;;4.47;;
4833;SDS011;12895;51.064;7.028;2023-06-22T02:34:06;4.30;;;4.00;;
4833;SDS011;12895;51.064;7.028;2023-06-22T02:36:54;4.63;;;4.23;;
4833;SDS011;12895;51.064;7.028;2023-06-22T02:39:41;4.77;;;4.37;;
4833;SDS011;12895;51.064;7.028;2023-06-22T02:42:28;4.30;;;4.00;;
4833;SDS011;12895;51.064;7.028;2023-06-22T02:45:15;4.70;;;4.30;;
4833;SDS011;12895;51.064;7.028;2023-06-22T02:48:03;4.73;;;4.33;;
4833;SDS011;12895;51.064;7.028;2023-06-22T02:50:50;5.10;;;4.23;;
4833;SDS011;12895;51.064;7.028;2023-06-22T02:53:39;4.83;;;4.30;;
4833;SDS011;12895;51.064;7.028;2023-06-22T02:56:30;4.40;;;4.10;;
4833;SDS011;12895;51.064;7.028;2023-06-22T02:59:20;4.60;;;4.30;;
4833;SDS011;12895;51.064;7.028;2023-06-22T03:02:10;5.27;;;4.83;;
4833;SDS011;12895;51.064;7.028;2023-06-22T03:04:58;5.67;;;4.93;;
4833;SDS011;12895;51.064;7.028;2023-06-22T03:07:47;4.50;;;4.20;;
4833;SDS011;12895;51.064;7.028;2023-06-22T03:10:35;4.97;;;4.50;;
4833;SDS011;12895;51.064;7.028;2023-06-22T03:13:23;5.70;;;5.20;;
4833;SDS011;12895;51.064;7.028;2023-06-22T03:16:10;5.00;;;4.50;;
4833;SDS011;12895;51.064;7.028;2023-06-22T03:18:57;5.03;;;4.70;;
4833;SDS011;12895;51.064;7.028;2023-06-22T03:21:44;5.23;;;4.80;;
4833;SDS011;12895;51.064;7.028;2023-06-22T03:24:31;4.50;;;4.13;;
4833;SDS011;12895;51.064;7.028;2023-06-22T03:27:21;4.57;;;4.27;;
4833;SDS011;12895;51.064;7.028;2023-06-22T03:30:09;5.10;;;4.53;;
4833;SDS011;12895;51.064;7.028;2023-06-22T03:32:57;4.57;;;4.27;;
4833;SDS011;12895;51.064;7.028;2023-06-22T03:35:46;5.00;;;4.60;;
4833;SDS011;12895;51.064;7.028;2023-06-22T03:38:33;4.40;;;4.10;;
4833;SDS011;12895;51.064;7.028;2023-06-22T03:41:20;4.63;;;3.90;;
4833;SDS011;12895;51.064;7.028;2023-06-22T03:44:09;4.83;;;4.43;;
4833;SDS011;12895;51.064;7.028;2023-06-22T03:46:58;5.07;;;4.67;;
4833;SDS011;12895;51.064;7.028;2023-06-22T03:49:45;4.97;;;4.57;;
4833;SDS011;12895;51.064;7.028;2023-06-22T03:52:32;5.33;;;4.93;;
4833;SDS011;12895;51.064;7.028;2023-06-22T03:55:19;4.83;;;4.43;;
4833;SDS011;12895;51.064;7.028;2023-06-22T03:58:06;4.80;;;4.27;;
4833;SDS011;12895;51.064;7.028;2023-06-22T04:00:56;6.43;;;5.07;;
4833;SDS011;12895;51.064;7.028;2023-06-22T04:03:43;4.57;;;4.20;;
4833;SDS011;12895;51.064;7.028;2023-06-22T04:06:33;4.70;;;4.40;;
4833;SDS011;12895;51.064;7.028;2023-06-22T04:09:20;4.70;;;4.20;;
4833;SDS011;12895;51.064;7.028;2023-06-22T04:12:08;4.93;;;4.53;;
4833;SDS011;12895;51.064;7.028;2023-06-22T04:14:55;4.63;;;4.33;;
4833;SDS011;12895;51.064;7.028;2023-06-22T04:17:43;5.30;;;4.90;;
4833;SDS011;12895;51.064;7.028;2023-06-22T04:20:31;5.10;;;4.23;;
4833;SDS011;12895;51.064;7.028;2023-06-22T04:23:18;4.57;;;4.17;;
4833;SDS011;12895;51.064;7.028;2023-06-22T04:26:05;4.80;;;4.40;;
4833;SDS011;12895;51.064;7.028;2023-06-22T04:28:52;5.00;;;4.50;;
4833;SDS011;12895;51.064;7.028;2023-06-22T04:31:41;5.47;;;4.97;;
4833;SDS011;12895;51.064;7.028;2023-06-22T04:34:29;4.80;;;4.40;;
4833;SDS011;12895;51.064;7.028;2023-06-22T04:37:16;5.23;;;4.73;;
4833;SDS011;12895;51.064;7.028;2023-06-22T04:40:03;7.30;;;4.77;;
4833;SDS011;12895;51.064;7.028;2023-06-22T04:42:52;5.40;;;5.00;;
4833;SDS011;12895;51.064;7.028;2023-06-22T04:45:39;5.73;;;5.33;;
4833;SDS011;12895;51.064;7.028;2023-06-22T04:48:26;5.50;;;5.20;;
4833;SDS011;12895;51.064;7.028;2023-06-22T04:51:19;5.97;;;5.47;;
4833;SDS011;12895;51.064;7.028;2023-06-22T04:54:07;6.07;;;5.57;;
4833;SDS011;12895;51.064;7.028;2023-06-22T04:56:55;6.63;;;6.13;;
4833;SDS011;12895;51.064;7.028;2023-06-22T04:59:42;7.20;;;6.60;;
4833;SDS011;12895;51.064;7.028;2023-06-22T05:02:29;6.80;;;6.30;;
4833;SDS011;12895;51.064;7.028;2023-06-22T05:05:17;6.20;;;5.70;;
4833;SDS011;12895;51.064;7.028;2023-06-22T05:08:05;6.57;;;6.07;;
4833;SDS011;12895;51.064;7.028;2023-06-22T05:10:52;7.00;;;6.50;;
4833;SDS011;12895;51.064;7.028;2023-06-22T05:13:39;7.20;;;6.70;;
4833;SDS011;12895;51.064;7.028;2023-06-22T05:16:26;6.60;;;6.10;;
4833;SDS011;12895;51.064;7.028;2023-06-22T05:19:13;6.97;;;6.43;;
4833;SDS011;12895;51.064;7.028;2023-06-22T05:22:00;9.03;;;7.23;;
4833;SDS011;12895;51.064;7.028;2023-06-22T05:24:48;7.43;;;7.00;;
4833;SDS011;12895;51.064;7.028;2023-06-22T05:27:35;8.47;;;7.87;;
4833;SDS011;12895;51.064;7.028;2023-06-22T05:30:25;8.10;;;7.50;;
4833;SDS011;12895;51.064;7.028;2023-06-22T05:33:12;8.67;;;7.97;;
4833;SDS011;12895;51.064;7.028;2023-06-22T05:35:59;9.33;;;8.57;;
4833;SDS011;12895;51.064;7.028;2023-06-22T05:38:46;8.20;;;7.40;;
4833;SDS011;12895;51.064;7.028;2023-06-22T05:41:34;8.53;;;7.90;;
4833;SDS011;12895;51.064;7.028;2023-06-22T05:44:21;8.07;;;7.47;;
4833;SDS011;12895;51.064;7.028;2023-06-22T05:47:08;7.40;;;6.80;;
4833;SDS011;12895;51.064;7.028;2023-06-22T05:49:55;7.73;;;6.87;;
4833;SDS011;12895;51.064;7.028;2023-06-22T05:52:42;8.90;;;8.00;;
4833;SDS011;12895;51.064;7.028;2023-06-22T05:55:29;8.53;;;7.93;;
4833;SDS011;12895;51.064;7.028;2023-06-22T05:58:17;9.27;;;8.50;;
4833;SDS011;12895;51.064;7.028;2023-06-22T06:01:04;8.87;;;8.07;;
4833;SDS011;12895;51.064;7.028;2023-06-22T06:03:51;8.57;;;7.87;;
4833;SDS011;12895;51.064;7.028;2023-06-22T06:06:38;10.03;;;9.27;;
4833;SDS011;12895;51.064;7.028;2023-06-22T06:09:25;9.40;;;8.70;;
4833;SDS011;12895;51.064;7.028;2023-06-22T06:12:12;9.97;;;9.17;;
4833;SDS011;12895;51.064;7.028;2023-06-22T06:15:00;9.60;;;9.00;;
4833;SDS011;12895;51.064;7.028;2023-06-22T06:17:47;9.10;;;8.50;;
4833;SDS011;12895;51.064;7.028;2023-06-22T06:20:35;10.07;;;9.40;;
4833;SDS011;12895;51.064;7.028;2023-06-22T06:23:22;10.40;;;9.70;;
4833;SDS011;12895;51.064;7.028;2023-06-22T06:26:09;11.50;;;10.60;;
4833;SDS011;12895;51.064;7.028;2023-06-22T06:28:56;11.90;;;11.03;;
4833;SDS011;12895;51.064;7.028;2023-06-22T06:31:45;11.17;;;10.37;;
4833;SDS011;12895;51.064;7.028;2023-06-22T06:34:32;11.00;;;10.27;;
4833;SDS011;12895;51.064;7.028;2023-06-22T06:37:19;11.87;;;11.07;;
4833;SDS011;12895;51.064;7.028;2023-06-22T06:40:07;11.87;;;11.00;;
4833;SDS011;12895;51.064;7.028;2023-06-22T06:42:56;11.50;;;10.40;;
4833;SDS011;12895;51.064;7.028;2023-06-22T06:45:42;11.70;;;10.80;;
4833;SDS011;12895;51.064;7.028;2023-06-22T06:48:31;12.83;;;11.70;;
4833;SDS011;12895;51.064;7.028;2023-06-22T06:51:18;11.37;;;10.47;;
4833;SDS011;12895;51.064;7.028;2023-06-22T06:54:05;14.53;;;10.17;;
4833;SDS011;12895;51.064;7.028;2023-06-22T06:56:52;10.87;;;10.07;;
4833;SDS011;12895;51.064;7.028;2023-06-22T06:59:39;12.20;;;11.40;;
4833;SDS011;12895;51.064;7.028;2023-06-22T07:02:26;12.20;;;11.47;;
4833;SDS011;12895;51.064;7.028;2023-06-22T07:05:15;11.63;;;10.73;;
4833;SDS011;12895;51.064;7.028;2023-06-22T07:08:03;13.13;;;11.93;;
4833;SDS011;12895;51.064;7.028;2023-06-22T07:10:50;12.30;;;11.40;;
4833;SDS011;12895;51.064;7.028;2023-06-22T07:13:38;11.80;;;11.00;;
4833;SDS011;12895;51.064;7.028;2023-06-22T07:16:25;12.37;;;11.57;;
4833;SDS011;12895;51.064;7.028;2023-06-22T07:19:13;11.70;;;10.90;;
4833;SDS011;12895;51.064;7.028;2023-06-22T07:22:02;11.03;;;10.10;;
4833;SDS011;12895;51.064;7.028;2023-06-22T07:24:49;12.40;;;11.50;;
4833;SDS011;12895;51.064;7.028;2023-06-22T07:27:37;12.30;;;11.27;;
4833;SDS011;12895;51.064;7.028;2023-06-22T07:30:25;10.90;;;10.10;;
4833;SDS011;12895;51.064;7.028;2023-06-22T07:33:15;11.50;;;10.50;;
4833;SDS011;12895;51.064;7.028;2023-06-22T07:36:03;11.80;;;10.70;;
4833;SDS011;12895;51.064;7.028;2023-06-22T07:38:54;10.53;;;9.83;;
4833;SDS011;12895;51.064;7.028;2023-06-22T07:41:41;15.50;;;10.90;;
4833;SDS011;12895;51.064;7.028;2023-06-22T07:44:28;11.63;;;10.70;;
4833;SDS011;12895;51.064;7.028;2023-06-22T07:47:15;12.10;;;11.10;;
4833;SDS011;12895;51.064;7.028;2023-06-22T07:50:03;12.00;;;11.00;;
4833;SDS011;12895;51.064;7.028;2023-06-22T07:52:51;11.03;;;10.23;;
4833;SDS011;12895;51.064;7.028;2023-06-22T07:55:40;10.47;;;9.77;;
4833;SDS011;12895;51.064;7.028;2023-06-22T07:58:27;12.10;;;11.10;;
4833;SDS011;12895;51.064;7.028;2023-06-22T08:01:14;10.80;;;10.00;;
4833;SDS011;12895;51.064;7.028;2023-06-22T08:04:02;10.70;;;9.90;;
4833;SDS011;12895;51.064;7.028;2023-06-22T08:06:51;11.37;;;10.40;;
4833;SDS011;12895;51.064;7.028;2023-06-22T08:09:38;11.00;;;10.20;;
4833;SDS011;12895;51.064;7.028;2023-06-22T08:12:26;11.07;;;10.37;;
4833;SDS011;12895;51.064;7.028;2023-06-22T08:15:13;11.70;;;10.50;;
4833;SDS011;12895;51.064;7.028;2023-06-22T08:18:00;11.60;;;10.07;;
4833;SDS011;12895;51.064;7.028;2023-06-22T08:20:47;11.10;;;9.40;;
4833;SDS011;12895;51.064;7.028;2023-06-22T08:23:34;10.13;;;9.33;;
4833;SDS011;12895;51.064;7.028;2023-06-22T08:26:22;10.17;;;9.47;;
4833;SDS011;12895;51.064;7.028;2023-06-22T08:29:10;9.53;;;8.73;;
4833;SDS011;12895;51.064;7.028;2023-06-22T08:31:57;10.43;;;9.63;;
4833;SDS011;12895;51.064;7.028;2023-06-22T08:34:44;9.23;;;8.63;;
4833;SDS011;12895;51.064;7.028;2023-06-22T08:37:31;8.93;;;8.33;;
4833;SDS011;12895;51.064;7.028;2023-06-22T08:40:21;10.00;;;9.30;;
4833;SDS011;12895;51.064;7.028;2023-06-22T08:43:08;9.17;;;8.50;;
4833;SDS011;12895;51.064;7.028;2023-06-22T08:45:56;9.77;;;9.17;;
4833;SDS011;12895;51.064;7.028;2023-06-22T08:48:43;10.00;;;9.30;;
4833;SDS011;12895;51.064;7.028;2023-06-22T08:51:30;11.80;;;10.97;;
4833;SDS011;12895;51.064;7.028;2023-06-22T08:54:17;10.60;;;9.80;;
4833;SDS011;12895;51.064;7.028;2023-06-22T08:57:04;11.50;;;10.60;;
4833;SDS011;12895;51.064;7.028;2023-06-22T08:59:51;10.57;;;9.77;;
4833;SDS011;12895;51.064;7.028;2023-06-22T09:02:40;10.50;;;9.80;;
4833;SDS011;12895;51.064;7.028;2023-06-22T09:05:27;10.30;;;9.43;;
4833;SDS011;12895;51.064;7.028;2023-06-22T09:08:14;10.60;;;9.80;;
4833;SDS011;12895;51.064;7.028;2023-06-22T09:11:01;9.80;;;9.10;;
4833;SDS011;12895;51.064;7.028;2023-06-22T09:13:48;10.67;;;9.97;;
4833;SDS011;12895;51.064;7.028;2023-06-22T09:16:36;9.87;;;9.07;;
4833;SDS011;12895;51.064;7.028;2023-06-22T09:19:24;11.07;;;10.07;;
4833;SDS011;12895;51.064;7.028;2023-06-22T09:22:11;9.83;;;9.13;;
4833;SDS011;12895;51.064;7.028;2023-06-22T09:24:58;10.27;;;9.57;;
4833;SDS011;12895;51.064;7.028;2023-06-22T09:27:46;10.30;;;9.47;;
4833;SDS011;12895;51.064;7.028;2023-06-22T09:30:33;9.83;;;9.13;;
4833;SDS011;12895;51.064;7.028;2023-06-22T09:33:20;9.90;;;9.17;;
4833;SDS011;12895;51.064;7.028;2023-06-22T09:36:08;9.80;;;9.20;;
4833;SDS011;12895;51.064;7.028;2023-06-22T09:38:55;10.37;;;9.60;;
4833;SDS011;12895;51.064;7.028;2023-06-22T09:41:44;10.47;;;9.77;;
4833;SDS011;12895;51.064;7.028;2023-06-22T09:44:31;9.23;;;8.53;;
4833;SDS011;12895;51.064;7.028;2023-06-22T09:47:18;10.40;;;9.60;;
4833;SDS011;12895;51.064;7.028;2023-06-22T09:50:05;9.30;;;8.70;;
4833;SDS011;12895;51.064;7.028;2023-06-22T09:52:54;9.13;;;8.53;;
4833;SDS011;12895;51.064;7.028;2023-06-22T09:55:41;10.20;;;9.40;;
4833;SDS011;12895;51.064;7.028;2023-06-22T09:58:28;9.47;;;8.77;;
4833;SDS011;12895;51.064;7.028;2023-06-22T10:01:15;8.53;;;7.83;;
4833;SDS011;12895;51.064;7.028;2023-06-22T10:04:02;9.20;;;8.30;;
4833;SDS011;12895;51.064;7.028;2023-06-22T10:06:49;8.30;;;7.80;;
4833;SDS011;12895;51.064;7.028;2023-06-22T10:09:37;8.73;;;8.13;;
4833;SDS011;12895;51.064;7.028;2023-06-22T10:12:25;8.67;;;8.07;;
4833;SDS011;12895;51.064;7.028;2023-06-22T10:15:13;9.40;;;8.67;;
4833;SDS011;12895;51.064;7.028;2023-06-22T10:18:00;9.97;;;8.97;;
4833;SDS011;12895;51.064;7.028;2023-06-22T10:20:48;9.20;;;8.50;;
4833;SDS011;12895;51.064;7.028;2023-06-22T10:23:37;9.87;;;8.97;;
4833;SDS011;12895;51.064;7.028;2023-06-22T10:26:25;9.83;;;9.23;;
4833;SDS011;12895;51.064;7.028;2023-06-22T10:29:14;9.70;;;9.10;;
4833;SDS011;12895;51.064;7.028;2023-06-22T10:32:01;11.23;;;10.20;;
4833;SDS011;12895;51.064;7.028;2023-06-22T10:34:48;12.13;;;11.07;;
4833;SDS011;12895;51.064;7.028;2023-06-22T10:37:35;10.93;;;10.13;;
4833;SDS011;12895;51.064;7.028;2023-06-22T10:40:23;12.17;;;11.20;;
4833;SDS011;12895;51.064;7.028;2023-06-22T10:43:11;12.67;;;11.77;;
4833;SDS011;12895;51.064;7.028;2023-06-22T10:45:58;13.73;;;12.53;;
4833;SDS011;12895;51.064;7.028;2023-06-22T10:48:45;13.40;;;12.37;;
4833;SDS011;12895;51.064;7.028;2023-06-22T10:51:32;13.30;;;12.17;;
4833;SDS011;12895;51.064;7.028;2023-06-22T10:54:19;15.60;;;14.30;;
4833;SDS011;12895;51.064;7.028;2023-06-22T10:57:06;18.37;;;16.20;;
4833;SDS011;12895;51.064;7.028;2023-06-22T10:59:55;24.77;;;16.37;;
4833;SDS011;12895;51.064;7.028;2023-06-22T11:02:42;17.40;;;15.70;;
4833;SDS011;12895;51.064;7.028;2023-06-22T11:05:29;18.47;;;16.57;;
4833;SDS011;12895;51.064;7.028;2023-06-22T11:08:16;18.50;;;17.00;;
4833;SDS011;12895;51.064;7.028;2023-06-22T11:11:03;18.77;;;17.17;;
4833;SDS011;12895;51.064;7.028;2023-06-22T11:13:50;18.80;;;17.10;;
4833;SDS011;12895;51.064;7.028;2023-06-22T11:16:38;18.60;;;17.03;;
4833;SDS011;12895;51.064;7.028;2023-06-22T11:19:25;19.33;;;17.73;;
4833;SDS011;12895;51.064;7.028;2023-06-22T11:22:12;16.90;;;15.50;;
4833;SDS011;12895;51.064;7.028;2023-06-22T11:24:59;19.33;;;17.60;;
4833;SDS011;12895;51.064;7.028;2023-06-22T11:27:46;19.70;;;18.10;;
4833;SDS011;12895;51.064;7.028;2023-06-22T11:30:33;22.07;;;20.27;;
4833;SDS011;12895;51.064;7.028;2023-06-22T11:33:22;20.67;;;18.87;;
4833;SDS011;12895;51.064;7.028;2023-06-22T11:36:09;20.90;;;18.80;;
4833;SDS011;12895;51.064;7.028;2023-06-22T11:38:56;18.07;;;16.57;;
4833;SDS011;12895;51.064;7.028;2023-06-22T11:41:43;20.87;;;19.17;;
4833;SDS011;12895;51.064;7.028;2023-06-22T11:44:30;18.13;;;16.57;;
4833;SDS011;12895;51.064;7.028;2023-06-22T11:47:17;19.50;;;17.77;;
4833;SDS011;12895;51.064;7.028;2023-06-22T11:50:06;18.43;;;16.93;;
4833;SDS011;12895;51.064;7.028;2023-06-22T11:52:54;18.97;;;17.47;;
4833;SDS011;12895;51.064;7.028;2023-06-22T11:55:41;22.20;;;20.37;;
4833;SDS011;12895;51.064;7.028;2023-06-22T11:58:28;20.20;;;18.30;;
4833;SDS011;12895;51.064;7.028;2023-06-22T12:01:15;18.93;;;17.47;;
4833;SDS011;12895;51.064;7.028;2023-06-22T12:04:02;18.50;;;16.90;;
4833;SDS011;12895;51.064;7.028;2023-06-22T12:06:52;17.37;;;15.93;;
4833;SDS011;12895;51.064;7.028;2023-06-22T12:09:39;16.97;;;15.53;;
4833;SDS011;12895;51.064;7.028;2023-06-22T12:12:26;14.20;;;13.10;;
4833;SDS011;12895;51.064;7.028;2023-06-22T12:15:13;14.70;;;13.50;;
4833;SDS011;12895;51.064;7.028;2023-06-22T12:18:00;15.33;;;14.13;;
4833;SDS011;12895;51.064;7.028;2023-06-22T12:20:47;14.63;;;13.53;;
4833;SDS011;12895;51.064;7.028;2023-06-22T12:23:36;12.80;;;11.90;;
4833;SDS011;12895;51.064;7.028;2023-06-22T12:26:23;12.43;;;11.53;;
4833;SDS011;12895;51.064;7.028;2023-06-22T12:29:10;12.30;;;11.30;;
4833;SDS011;12895;51.064;7.028;2023-06-22T12:31:57;12.17;;;11.20;;
4833;SDS011;12895;51.064;7.028;2023-06-22T12:34:44;12.63;;;11.70;;
4833;SDS011;12895;51.064;7.028;2023-06-22T12:37:31;13.07;;;12.07;;
4833;SDS011;12895;51.064;7.028;2023-06-22T12:40:20;12.33;;;11.40;;
4833;SDS011;12895;51.064;7.028;2023-06-22T12:43:07;12.47;;;11.57;;
4833;SDS011;12895;51.064;7.028;2023-06-22T12:45:54;13.43;;;12.50;;
4833;SDS011;12895;51.064;7.028;2023-06-22T12:48:42;12.13;;;11.23;;
4833;SDS011;12895;51.064;7.028;2023-06-22T12:51:29;10.70;;;10.00;;
4833;SDS011;12895;51.064;7.028;2023-06-22T12:54:16;10.17;;;9.47;;
4833;SDS011;12895;51.064;7.028;2023-06-22T12:57:05;10.03;;;9.37;;
4833;SDS011;12895;51.064;7.028;2023-06-22T12:59:53;10.37;;;9.57;;
4833;SDS011;12895;51.064;7.028;2023-06-22T13:02:40;10.93;;;10.13;;
4833;SDS011;12895;51.064;7.028;2023-06-22T13:05:27;10.50;;;9.80;;
4833;SDS011;12895;51.064;7.028;2023-06-22T13:08:16;9.63;;;8.93;;
4833;SDS011;12895;51.064;7.028;2023-06-22T13:11:02;8.53;;;7.97;;
4833;SDS011;12895;51.064;7.028;2023-06-22T13:13:51;7.57;;;7.07;;
4833;SDS011;12895;51.064;7.028;2023-06-22T13:16:38;7.13;;;6.60;;
4833;SDS011;12895;51.064;7.028;2023-06-22T13:19:24;6.63;;;6.00;;
4833;SDS011;12895;51.064;7.028;2023-06-22T13:22:27;6.70;;;6.23;;
4833;SDS011;12895;51.064;7.028;2023-06-22T13:25:16;5.90;;;5.60;;
4833;SDS011;12895;51.064;7.028;2023-06-22T13:28:04;6.17;;;5.77;;
4833;SDS011;12895;51.064;7.028;2023-06-22T13:30:53;5.20;;;4.70;;
4833;SDS011;12895;51.064;7.028;2023-06-22T13:33:40;5.80;;;5.40;;
4833;SDS011;12895;51.064;7.028;2023-06-22T13:36:27;6.73;;;6.23;;
4833;SDS011;12895;51.064;7.028;2023-06-22T13:39:16;6.77;;;6.27;;
4833;SDS011;12895;51.064;7.028;2023-06-22T13:42:03;8.30;;;7.80;;
4833;SDS011;12895;51.064;7.028;2023-06-22T13:44:50;8.93;;;8.23;;
4833;SDS011;12895;51.064;7.028;2023-06-22T13:47:38;8.63;;;8.00;;
4833;SDS011;12895;51.064;7.028;2023-06-22T13:50:25;7.57;;;7.07;;
4833;SDS011;12895;51.064;7.028;2023-06-22T13:53:14;8.13;;;7.63;;
4833;SDS011;12895;51.064;7.028;2023-06-22T13:56:01;7.73;;;7.13;;
4833;SDS011;12895;51.064;7.028;2023-06-22T13:58:48;9.20;;;8.60;;
4833;SDS011;12895;51.064;7.028;2023-06-22T14:01:35;8.63;;;8.13;;
4833;SDS011;12895;51.064;7.028;2023-06-22T14:04:25;8.27;;;7.77;;
4833;SDS011;12895;51.064;7.028;2023-06-22T14:07:14;8.47;;;7.97;;
4833;SDS011;12895;51.064;7.028;2023-06-22T14:10:01;7.90;;;7.37;;
4833;SDS011;12895;51.064;7.028;2023-06-22T14:12:48;8.70;;;8.20;;
4833;SDS011;12895;51.064;7.028;2023-06-22T14:15:35;8.83;;;8.23;;
4833;SDS011;12895;51.064;7.028;2023-06-22T14:18:22;7.67;;;6.97;;
4833;SDS011;12895;51.064;7.028;2023-06-22T14:21:10;5.50;;;5.20;;
4833;SDS011;12895;51.064;7.028;2023-06-22T14:23:57;5.13;;;4.83;;
4833;SDS011;12895;51.064;7.028;2023-06-22T14:26:44;4.80;;;4.50;;
4833;SDS011;12895;51.064;7.028;2023-06-22T14:29:32;5.20;;;4.90;;
4833;SDS011;12895;51.064;7.028;2023-06-22T14:32:19;5.20;;;4.90;;
4833;SDS011;12895;51.064;7.028;2023-06-22T14:35:06;5.60;;;5.27;;
4833;SDS011;12895;51.064;7.028;2023-06-22T14:37:55;5.27;;;4.97;;
4833;SDS011;12895;51.064;7.028;2023-06-22T14:40:42;5.30;;;4.90;;
4833;SDS011;12895;51.064;7.028;2023-06-22T14:43:28;5.17;;;4.87;;
4833;SDS011;12895;51.064;7.028;2023-06-22T14:46:15;6.37;;;5.97;;
4833;SDS011;12895;51.064;7.028;2023-06-22T14:49:03;7.37;;;6.87;;
4833;SDS011;12895;51.064;7.028;2023-06-22T14:51:50;7.00;;;6.60;;
4833;SDS011;12895;51.064;7.028;2023-06-22T14:54:39;6.87;;;6.37;;
4833;SDS011;12895;51.064;7.028;2023-06-22T14:57:26;8.20;;;7.60;;
4833;SDS011;12895;51.064;7.028;2023-06-22T15:00:13;8.43;;;7.73;;
4833;SDS011;12895;51.064;7.028;2023-06-22T15:03:00;9.17;;;8.57;;
4833;SDS011;12895;51.064;7.028;2023-06-22T15:05:48;8.53;;;7.80;;
4833;SDS011;12895;51.064;7.028;2023-06-22T15:08:36;9.60;;;8.90;;
4833;SDS011;12895;51.064;7.028;2023-06-22T15:11:25;9.67;;;8.97;;
4833;SDS011;12895;51.064;7.028;2023-06-22T15:14:13;12.10;;;10.97;;
4833;SDS011;12895;51.064;7.028;2023-06-22T15:17:00;11.23;;;10.13;;
4833;SDS011;12895;51.064;7.028;2023-06-22T15:19:47;10.70;;;9.73;;
4833;SDS011;12895;51.064;7.028;2023-06-22T15:22:34;12.83;;;11.57;;
4833;SDS011;12895;51.064;7.028;2023-06-22T15:25:21;13.33;;;11.93;;
4833;SDS011;12895;51.064;7.028;2023-06-22T15:28:09;12.93;;;11.77;;
4833;SDS011;12895;51.064;7.028;2023-06-22T15:30:56;10.93;;;10.00;;
4833;SDS011;12895;51.064;7.028;2023-06-22T15:33:43;12.70;;;11.33;;
4833;SDS011;12895;51.064;7.028;2023-06-22T15:36:30;11.20;;;10.17;;
4833;SDS011;12895;51.064;7.028;2023-06-22T15:39:17;12.10;;;11.10;;
4833;SDS011;12895;51.064;7.028;2023-06-22T15:42:04;11.73;;;10.67;;
4833;SDS011;12895;51.064;7.028;2023-06-22T15:44:53;10.90;;;10.10;;
4833;SDS011;12895;51.064;7.028;2023-06-22T15:47:40;10.40;;;9.50;;
4833;SDS011;12895;51.064;7.028;2023-06-22T15:50:27;9.80;;;9.00;;
4833;SDS011;12895;51.064;7.028;2023-06-22T15:53:14;11.23;;;8.97;;
4833;SDS011;12895;51.064;7.028;2023-06-22T15:56:01;10.83;;;9.83;;
4833;SDS011;12895;51.064;7.028;2023-06-22T15:58:49;9.20;;;8.50;;
4833;SDS011;12895;51.064;7.028;2023-06-22T16:01:38;9.70;;;9.00;;
4833;SDS011;12895;51.064;7.028;2023-06-22T16:04:25;11.37;;;10.50;;
4833;SDS011;12895;51.064;7.028;2023-06-22T16:07:12;10.90;;;10.07;;
4833;SDS011;12895;51.064;7.028;2023-06-22T16:09:59;10.33;;;9.43;;
4833;SDS011;12895;51.064;7.028;2023-06-22T16:12:46;9.67;;;8.87;;
4833;SDS011;12895;51.064;7.028;2023-06-22T16:15:34;10.20;;;9.40;;
4833;SDS011;12895;51.064;7.028;2023-06-22T16:18:23;11.00;;;10.10;;
4833;SDS011;12895;51.064;7.028;2023-06-22T16:21:09;10.17;;;9.37;;
4833;SDS011;12895;51.064;7.028;2023-06-22T16:23:58;10.00;;;9.30;;
4833;SDS011;12895;51.064;7.028;2023-06-22T16:26:45;10.70;;;9.90;;
4833;SDS011;12895;51.064;7.028;2023-06-22T16:29:33;10.90;;;10.10;;
4833;SDS011;12895;51.064;7.028;2023-06-22T16:32:22;12.03;;;11.03;;
4833;SDS011;12895;51.064;7.028;2023-06-22T16:35:10;13.00;;;12.00;;
4833;SDS011;12895;51.064;7.028;2023-06-22T16:37:57;12.07;;;10.87;;
4833;SDS011;12895;51.064;7.028;2023-06-22T16:40:44;12.23;;;11.07;;
4833;SDS011;12895;51.064;7.028;2023-06-22T16:43:31;11.43;;;10.53;;
4833;SDS011;12895;51.064;7.028;2023-06-22T16:46:18;11.43;;;10.63;;
4833;SDS011;12895;51.064;7.028;2023-06-22T16:49:04;11.83;;;10.73;;
4833;SDS011;12895;51.064;7.028;2023-06-22T16:51:53;11.30;;;10.50;;
4833;SDS011;12895;51.064;7.028;2023-06-22T16:54:40;12.00;;;11.10;;